Anita, PA

5:18 AM EST on January 29, 2015 (GMT -0500)
Holly Terrace | Change Station
CLOSE
Current Station
Personal Weather Station
Location: Falls Creek, PA
Elevation: 1473 ft
Nearby Weather Stations
Active Advisory: Winter Weather Advisory

Elev 1473 ft 41.14 °N, 78.81 °W | Updated 1 second ago

Overcast
Overcast
4.3 °F
Feels Like 4 °F
N
0.0
Wind Variable Wind from North
Gusts 0.0 mph

Today
High -- | Low -- °F
--% Chance of Precip.
Yesterday
High -- | Low -- °F
Precip. -- in
7:29 AM 5:28 PM
Waxing Gibbous, 73% visible
Pressure 30.24 in
Visibility 10.0 miles
Clouds Overcast 11000 ft
Windchill 4 °F
Dew Point 4 °F
Humidity 97%
Rainfall 0.00 in
Snow Depth Not available.
UV 0 out of 12
Pollen .10 out of 12
Air Quality Not available.
Flu Activity Not available.
METAR KDUJ 290953Z AUTO 11008KT 10SM OVC110 M10/M14 A3014 RMK AO2 SLP238 T11001144

More Conditions Fewer Conditions

Pressure 30.24 in
Visibility 10.0 miles
Clouds Overcast 11000 ft
Windchill 4 °F
Dew Point 4 °F
Humidity 97%
Rainfall 0.00 in
Snow Depth Not available.
UV 0 out of 12
Pollen .10 out of 12
Air Quality Not available.
Flu Activity Not available.
METAR KDUJ 290953Z AUTO 11008KT 10SM OVC110 M10/M14 A3014 RMK AO2 SLP238 T11001144

More Conditions Fewer Conditions

10-Day Weather Forecast

Almanac

Astronomy

Jan. 29, 2015 Rise Set
Actual Time
Civil Twilight
Nautical Twilight
Astronomical Twilight
Moon
Length of Visible Light
Length of Day
Tomorrow will be .
, % of the Moon is Illuminated

Today's Extremes

State Highs State Lows

Community

WunderPhotos

Upload Photos

1,791,389 photos uploaded!

WunderBlogs® & News

Nearby

Air Quality

  Air Quality AQ Index Pollutant
Not available.

Snow Depth

Station Depth Elevation

Earthquake Activity

City Distance Mag. Time & Date
Minimum magnitude displayed is 2.5.

Coastal Water Temperatures

Place Temperature

Nearby Weather Stations